Wetterdaten: Woche 08.06.09 - 14.06.09 (KW24)
Datum Zeit Temperatur Luftfeuchte Luftdruck Niederschlag Wind Richtung Sonnenschein Solar Taupunkt Windchill Windben
08.06.2009 00:00 12.5 C 83 % 1009.5 hPa 0.0 l/m 0.6 km/h (0 Bft) O-SO 0.00 h 0 W/m 9.6 C 12.5 C 1.0 km/h (0 Bft)
08.06.2009 01:00 11.7 C 85 % 1009.7 hPa 0.0 l/m 0.5 km/h (0 Bft) O-SO 0.00 h 0 W/m 9.3 C 11.7 C 1.0 km/h (0 Bft)
08.06.2009 02:00 11.3 C 88 % 1009.8 hPa 0.0 l/m 0.8 km/h (0 Bft) SO 0.00 h 0 W/m 9.4 C 11.3 C 1.7 km/h (1 Bft)
08.06.2009 03:00 10.8 C 89 % 1009.6 hPa 0.0 l/m 0.2 km/h (0 Bft) S-SW 0.00 h 0 W/m 9.0 C 10.8 C 0.6 km/h (0 Bft)
08.06.2009 04:00 10.2 C 90 % 1009.8 hPa 0.0 l/m 0.7 km/h (0 Bft) SO 0.00 h 0 W/m 8.6 C 10.2 C 1.4 km/h (1 Bft)
08.06.2009 05:00 9.6 C 92 % 1010.4 hPa 0.0 l/m 0.3 km/h (0 Bft) SO 0.12 h 14 W/m 8.3 C 9.6 C 0.8 km/h (0 Bft)
08.06.2009 06:00 9.7 C 93 % 1010.8 hPa 0.0 l/m 0.0 km/h (0 Bft) N 0.00 h 35 W/m 8.7 C 9.7 C 0.1 km/h (0 Bft)
08.06.2009 07:00 10.9 C 94 % 1010.7 hPa 0.0 l/m 0.2 km/h (0 Bft) SO 0.47 h 157 W/m 10.1 C 10.9 C 1.1 km/h (1 Bft)
08.06.2009 08:00 14.5 C 84 % 1010.3 hPa 0.0 l/m 1.3 km/h (1 Bft) NW 0.98 h 363 W/m 11.9 C 14.5 C 3.0 km/h (1 Bft)
08.06.2009 09:00 17.0 C 73 % 1009.9 hPa 0.0 l/m 2.0 km/h (1 Bft) N-NW 1.00 h 512 W/m 12.0 C 17.0 C 4.0 km/h (1 Bft)
08.06.2009 10:00 19.0 C 65 % 1009.2 hPa 0.0 l/m 2.6 km/h (1 Bft) N-NW 1.00 h 663 W/m 12.1 C 19.0 C 4.5 km/h (1 Bft)
08.06.2009 11:00 20.3 C 57 % 1008.7 hPa 0.0 l/m 2.3 km/h (1 Bft) O-SO 0.97 h 696 W/m 11.4 C 20.3 C 4.9 km/h (1 Bft)
08.06.2009 12:00 21.3 C 52 % 1008.2 hPa 0.0 l/m 2.3 km/h (1 Bft) SO 0.70 h 642 W/m 11.1 C 21.3 C 4.8 km/h (1 Bft)
08.06.2009 13:00 20.9 C 53 % 1007.8 hPa 0.0 l/m 1.7 km/h (1 Bft) SO 0.18 h 415 W/m 10.8 C 20.9 C 3.9 km/h (1 Bft)
08.06.2009 14:00 22.6 C 51 % 1007.2 hPa 0.0 l/m 3.5 km/h (1 Bft) N-NW 0.75 h 597 W/m 12.0 C 22.6 C 6.4 km/h (2 Bft)
08.06.2009 15:00 22.3 C 52 % 1006.9 hPa 0.0 l/m 4.0 km/h (1 Bft) N 0.10 h 391 W/m 11.9 C 22.3 C 8.4 km/h (2 Bft)
08.06.2009 16:00 21.7 C 58 % 1006.9 hPa 0.2 l/m 1.1 km/h (1 Bft) N-NO 0.00 h 142 W/m 12.9 C 21.7 C 3.0 km/h (1 Bft)
08.06.2009 17:00 19.3 C 79 % 1007.2 hPa 0.2 l/m 2.0 km/h (1 Bft) W-NW 0.00 h 213 W/m 15.5 C 19.3 C 4.2 km/h (1 Bft)
08.06.2009 18:00 18.6 C 78 % 1007.8 hPa 2.8 l/m 1.6 km/h (1 Bft) O 0.00 h 48 W/m 14.7 C 18.6 C 2.8 km/h (1 Bft)
08.06.2009 19:00 16.9 C 88 % 1008.0 hPa 0.2 l/m 1.3 km/h (1 Bft) SO 0.00 h 55 W/m 15.0 C 16.9 C 2.4 km/h (1 Bft)
08.06.2009 20:00 16.7 C 91 % 1008.1 hPa 0.4 l/m 0.7 km/h (0 Bft) O-SO 0.00 h 29 W/m 15.2 C 16.7 C 1.7 km/h (1 Bft)
08.06.2009 21:00 16.0 C 92 % 1008.3 hPa 2.8 l/m 1.9 km/h (1 Bft) N-NW 0.00 h 7 W/m 14.7 C 16.0 C 3.5 km/h (1 Bft)
08.06.2009 22:00 15.3 C 94 % 1008.7 hPa 1.4 l/m 1.9 km/h (1 Bft) O-SO 0.00 h 0 W/m 14.3 C 15.3 C 3.6 km/h (1 Bft)
08.06.2009 23:00 14.8 C 95 % 1008.4 hPa 0.6 l/m 0.9 km/h (0 Bft) NW 0.00 h 0 W/m 14.0 C 14.8 C 2.6 km/h (1 Bft)
09.06.2009 00:00 14.3 C 95 % 1008.2 hPa 0.0 l/m 1.4 km/h (1 Bft) O 0.00 h 0 W/m 13.6 C 14.3 C 2.7 km/h (1 Bft)
09.06.2009 01:00 14.0 C 96 % 1007.9 hPa 2.0 l/m 3.7 km/h (1 Bft) O-SO 0.00 h 0 W/m 13.5 C 14.0 C 5.7 km/h (1 Bft)
09.06.2009 02:00 14.1 C 97 % 1008.5 hPa 0.2 l/m 1.5 km/h (1 Bft) W-NW 0.00 h 0 W/m 13.6 C 14.1 C 3.4 km/h (1 Bft)
09.06.2009 03:00 13.6 C 97 % 1008.5 hPa 0.0 l/m 1.4 km/h (1 Bft) W-NW 0.00 h 0 W/m 13.2 C 13.6 C 3.0 km/h (1 Bft)
09.06.2009 04:00 12.8 C 97 % 1009.0 hPa 0.8 l/m 4.6 km/h (1 Bft) W-NW 0.00 h 0 W/m 12.3 C 12.8 C 7.5 km/h (2 Bft)
09.06.2009 05:00 12.2 C 97 % 1009.8 hPa 1.2 l/m 0.5 km/h (0 Bft) S 0.00 h 5 W/m 11.7 C 12.2 C 2.0 km/h (1 Bft)
09.06.2009 06:00 12.1 C 97 % 1010.7 hPa 1.4 l/m 0.7 km/h (0 Bft) SW 0.00 h 16 W/m 11.7 C 12.1 C 2.1 km/h (1 Bft)
09.06.2009 07:00 12.2 C 97 % 1011.2 hPa 0.6 l/m 1.3 km/h (1 Bft) S-SO 0.00 h 34 W/m 11.7 C 12.2 C 3.4 km/h (1 Bft)
09.06.2009 08:00 12.4 C 97 % 1011.6 hPa 0.0 l/m 1.0 km/h (0 Bft) S-SO 0.07 h 131 W/m 12.0 C 12.4 C 2.4 km/h (1 Bft)
09.06.2009 09:00 14.0 C 95 % 1011.9 hPa 0.0 l/m 2.3 km/h (1 Bft) S-SO 0.18 h 284 W/m 13.1 C 14.0 C 5.3 km/h (1 Bft)
09.06.2009 10:00 14.5 C 89 % 1012.1 hPa 0.2 l/m 1.8 km/h (1 Bft) S-SO 0.02 h 252 W/m 12.7 C 14.5 C 4.3 km/h (1 Bft)
09.06.2009 11:00 16.1 C 80 % 1012.2 hPa 0.0 l/m 3.9 km/h (1 Bft) SO 0.35 h 524 W/m 12.7 C 16.1 C 6.7 km/h (2 Bft)
09.06.2009 12:00 18.4 C 71 % 1012.0 hPa 0.0 l/m 5.0 km/h (1 Bft) SO 0.85 h 841 W/m 13.1 C 18.4 C 9.3 km/h (2 Bft)
09.06.2009 13:00 20.0 C 66 % 1011.6 hPa 0.0 l/m 4.0 km/h (1 Bft) SO 0.83 h 853 W/m 13.4 C 20.0 C 7.4 km/h (2 Bft)
09.06.2009 14:00 21.6 C 57 % 1010.8 hPa 0.0 l/m 3.8 km/h (1 Bft) S-SO 0.78 h 843 W/m 12.7 C 21.6 C 7.5 km/h (2 Bft)
09.06.2009 15:00 21.5 C 56 % 1010.5 hPa 0.0 l/m 9.7 km/h (2 Bft) W-NW 0.77 h 718 W/m 12.4 C 21.5 C 16.2 km/h (3 Bft)
09.06.2009 16:00 21.5 C 57 % 1011.1 hPa 0.4 l/m 5.1 km/h (1 Bft) N-NW 0.73 h 569 W/m 12.7 C 21.5 C 8.7 km/h (2 Bft)
09.06.2009 17:00 22.5 C 54 % 1011.0 hPa 0.0 l/m 6.0 km/h (2 Bft) N-NW 0.93 h 506 W/m 12.8 C 22.5 C 9.3 km/h (2 Bft)
09.06.2009 18:00 21.5 C 54 % 1011.2 hPa 0.0 l/m 4.0 km/h (1 Bft) N-NW 0.32 h 219 W/m 11.8 C 21.5 C 6.5 km/h (2 Bft)
09.06.2009 19:00 20.3 C 59 % 1011.9 hPa 0.0 l/m 4.2 km/h (1 Bft) W-NW 0.35 h 120 W/m 12.0 C 20.3 C 7.1 km/h (2 Bft)
09.06.2009 20:00 20.2 C 56 % 1012.5 hPa 0.0 l/m 8.3 km/h (2 Bft) W-NW 0.20 h 53 W/m 11.1 C 20.2 C 12.8 km/h (3 Bft)
09.06.2009 21:00 18.2 C 63 % 1013.1 hPa 0.0 l/m 2.4 km/h (1 Bft) NW 0.00 h 8 W/m 11.0 C 18.2 C 4.1 km/h (1 Bft)
09.06.2009 22:00 16.5 C 72 % 1014.2 hPa 0.0 l/m 1.5 km/h (1 Bft) SO 0.00 h 0 W/m 11.4 C 16.5 C 2.5 km/h (1 Bft)
09.06.2009 23:00 15.8 C 69 % 1014.9 hPa 0.0 l/m 3.0 km/h (1 Bft) S-SO 0.00 h 0 W/m 10.1 C 15.8 C 5.3 km/h (1 Bft)
10.06.2009 00:00 15.5 C 71 % 1014.8 hPa 0.0 l/m 0.2 km/h (0 Bft) SW 0.00 h 0 W/m 10.2 C 15.5 C 0.9 km/h (0 Bft)
10.06.2009 01:00 14.9 C 75 % 1015.1 hPa 0.0 l/m 0.1 km/h (0 Bft) SW 0.00 h 0 W/m 10.5 C 14.9 C 0.6 km/h (0 Bft)
10.06.2009 02:00 14.0 C 79 % 1015.2 hPa 0.0 l/m 0.2 km/h (0 Bft) SW 0.00 h 0 W/m 10.5 C 14.0 C 0.7 km/h (0 Bft)
10.06.2009 03:00 13.1 C 81 % 1015.6 hPa 0.0 l/m 1.5 km/h (1 Bft) SO 0.00 h 0 W/m 9.9 C 13.1 C 2.9 km/h (1 Bft)
10.06.2009 04:00 12.7 C 80 % 1015.8 hPa 0.0 l/m 1.5 km/h (1 Bft) SO 0.00 h 0 W/m 9.4 C 12.7 C 2.6 km/h (1 Bft)
10.06.2009 05:00 12.8 C 81 % 1016.0 hPa 0.0 l/m 0.8 km/h (0 Bft) S-SO 0.00 h 10 W/m 9.5 C 12.8 C 1.8 km/h (1 Bft)
10.06.2009 06:00 13.1 C 81 % 1016.4 hPa 0.0 l/m 1.8 km/h (1 Bft) S-SO 0.18 h 64 W/m 9.9 C 13.1 C 4.3 km/h (1 Bft)
10.06.2009 07:00 14.7 C 79 % 1016.4 hPa 0.0 l/m 2.0 km/h (1 Bft) S-SO 0.83 h 204 W/m 11.0 C 14.7 C 4.6 km/h (1 Bft)
10.06.2009 08:00 16.2 C 73 % 1016.7 hPa 0.0 l/m 1.8 km/h (1 Bft) W 0.63 h 297 W/m 11.4 C 16.2 C 4.2 km/h (1 Bft)
10.06.2009 09:00 16.7 C 64 % 1017.0 hPa 0.0 l/m 5.0 km/h (1 Bft) W 0.57 h 398 W/m 10.0 C 16.7 C 8.7 km/h (2 Bft)
10.06.2009 10:00 18.4 C 61 % 1016.8 hPa 0.0 l/m 2.6 km/h (1 Bft) W 0.52 h 549 W/m 10.7 C 18.4 C 4.9 km/h (1 Bft)
10.06.2009 11:00 19.8 C 59 % 1016.4 hPa 0.0 l/m 2.4 km/h (1 Bft) W 0.63 h 641 W/m 11.6 C 19.8 C 4.6 km/h (1 Bft)
10.06.2009 12:00 21.3 C 55 % 1015.9 hPa 0.0 l/m 3.4 km/h (1 Bft) W 0.85 h 818 W/m 11.9 C 21.3 C 7.2 km/h (2 Bft)
10.06.2009 13:00 21.8 C 52 % 1015.4 hPa 0.0 l/m 4.3 km/h (1 Bft) W 0.53 h 641 W/m 11.5 C 21.8 C 7.3 km/h (2 Bft)
10.06.2009 14:00 23.7 C 44 % 1014.9 hPa 0.0 l/m 6.9 km/h (2 Bft) W-SW 0.97 h 884 W/m 10.5 C 23.7 C 13.1 km/h (3 Bft)
10.06.2009 15:00 24.0 C 40 % 1014.4 hPa 0.0 l/m 8.3 km/h (2 Bft) W 1.00 h 700 W/m 9.5 C 24.0 C 14.1 km/h (3 Bft)
10.06.2009 16:00 23.7 C 44 % 1014.1 hPa 0.0 l/m 8.0 km/h (2 Bft) W-NW 0.93 h 549 W/m 10.5 C 23.7 C 12.5 km/h (3 Bft)
10.06.2009 17:00 22.4 C 50 % 1013.9 hPa 0.0 l/m 5.5 km/h (1 Bft) W-NW 0.23 h 272 W/m 11.4 C 22.4 C 8.4 km/h (2 Bft)
10.06.2009 18:00 21.8 C 56 % 1013.4 hPa 0.0 l/m 1.1 km/h (0 Bft) W 0.00 h 157 W/m 12.7 C 21.8 C 2.5 km/h (1 Bft)
10.06.2009 19:00 21.8 C 57 % 1013.3 hPa 0.0 l/m 0.5 km/h (0 Bft) O-SO 0.15 h 118 W/m 12.9 C 21.8 C 1.4 km/h (1 Bft)
10.06.2009 20:00 20.6 C 64 % 1013.2 hPa 0.0 l/m 2.1 km/h (1 Bft) O-SO 0.00 h 15 W/m 13.6 C 20.6 C 3.5 km/h (1 Bft)
10.06.2009 21:00 19.6 C 57 % 1012.9 hPa 0.0 l/m 3.2 km/h (1 Bft) S-SO 0.00 h 7 W/m 10.7 C 19.6 C 5.5 km/h (1 Bft)
10.06.2009 22:00 19.4 C 55 % 1012.7 hPa 0.2 l/m 1.2 km/h (1 Bft) O-SO 0.00 h 0 W/m 10.1 C 19.4 C 2.6 km/h (1 Bft)
10.06.2009 23:00 18.2 C 72 % 1012.4 hPa 0.2 l/m 0.4 km/h (0 Bft) O-SO 0.00 h 0 W/m 12.9 C 18.2 C 1.1 km/h (1 Bft)
11.06.2009 00:00 16.4 C 85 % 1013.3 hPa 2.6 l/m 2.1 km/h (1 Bft) SO 0.00 h 0 W/m 13.8 C 16.4 C 4.0 km/h (1 Bft)
11.06.2009 01:00 15.1 C 91 % 1013.1 hPa 0.4 l/m 2.8 km/h (1 Bft) O-SO 0.00 h 0 W/m 13.7 C 15.1 C 4.6 km/h (1 Bft)
11.06.2009 02:00 14.8 C 93 % 1012.7 hPa 1.0 l/m 2.1 km/h (1 Bft) S-SO 0.00 h 0 W/m 13.7 C 14.8 C 4.7 km/h (1 Bft)
11.06.2009 03:00 15.1 C 93 % 1011.7 hPa 0.0 l/m 7.6 km/h (2 Bft) S-SO 0.00 h 0 W/m 14.0 C 15.1 C 15.9 km/h (3 Bft)
11.06.2009 04:00 15.2 C 92 % 1011.6 hPa 0.8 l/m 7.7 km/h (2 Bft) S-SO 0.00 h 0 W/m 13.8 C 15.2 C 15.5 km/h (3 Bft)
11.06.2009 05:00 14.9 C 93 % 1011.8 hPa 0.4 l/m 3.5 km/h (1 Bft) S-SW 0.00 h 7 W/m 13.8 C 14.9 C 7.5 km/h (2 Bft)
11.06.2009 06:00 14.8 C 95 % 1012.6 hPa 0.0 l/m 6.3 km/h (2 Bft) W 0.02 h 34 W/m 14.0 C 14.8 C 10.9 km/h (2 Bft)
11.06.2009 07:00 14.8 C 94 % 1013.5 hPa 0.0 l/m 15.5 km/h (3 Bft) W 0.00 h 65 W/m 13.8 C 14.8 C 24.3 km/h (4 Bft)
11.06.2009 08:00 15.1 C 81 % 1014.8 hPa 0.0 l/m 18.7 km/h (3 Bft) W 0.03 h 124 W/m 11.8 C 15.1 C 28.5 km/h (4 Bft)
11.06.2009 09:00 17.6 C 63 % 1015.6 hPa 0.0 l/m 18.9 km/h (3 Bft) W 0.83 h 517 W/m 10.4 C 17.6 C 29.9 km/h (5 Bft)
11.06.2009 10:00 18.2 C 59 % 1016.3 hPa 0.0 l/m 21.5 km/h (4 Bft) W 0.55 h 517 W/m 10.1 C 18.2 C 32.9 km/h (5 Bft)
11.06.2009 11:00 17.8 C 60 % 1017.1 hPa 0.0 l/m 22.0 km/h (4 Bft) W 0.52 h 585 W/m 10.1 C 17.8 C 33.6 km/h (5 Bft)
11.06.2009 12:00 18.5 C 56 % 1017.6 hPa 0.0 l/m 22.7 km/h (4 Bft) W 0.72 h 745 W/m 9.6 C 18.5 C 35.7 km/h (5 Bft)
11.06.2009 13:00 19.5 C 54 % 1018.0 hPa 0.0 l/m 20.0 km/h (4 Bft) W 0.98 h 943 W/m 10.0 C 19.5 C 30.8 km/h (5 Bft)
11.06.2009 14:00 20.2 C 48 % 1018.1 hPa 0.0 l/m 22.3 km/h (4 Bft) W 1.00 h 876 W/m 8.8 C 20.2 C 34.4 km/h (5 Bft)
11.06.2009 15:00 20.7 C 45 % 1018.4 hPa 0.0 l/m 21.1 km/h (4 Bft) W 1.00 h 808 W/m 8.5 C 20.7 C 31.4 km/h (5 Bft)
11.06.2009 16:00 20.9 C 43 % 1018.6 hPa 0.0 l/m 19.6 km/h (3 Bft) W-NW 1.00 h 708 W/m 7.8 C 20.9 C 30.1 km/h (5 Bft)
11.06.2009 17:00 21.4 C 40 % 1018.9 hPa 0.0 l/m 15.7 km/h (3 Bft) W 1.00 h 549 W/m 7.4 C 21.4 C 25.3 km/h (4 Bft)
11.06.2009 18:00 20.7 C 43 % 1018.8 hPa 0.0 l/m 16.1 km/h (3 Bft) W 0.97 h 375 W/m 7.6 C 20.7 C 24.5 km/h (4 Bft)
11.06.2009 19:00 19.8 C 47 % 1019.1 hPa 0.0 l/m 15.1 km/h (3 Bft) W 0.73 h 191 W/m 8.0 C 19.8 C 23.0 km/h (4 Bft)
11.06.2009 20:00 18.7 C 48 % 1019.6 hPa 0.0 l/m 13.1 km/h (3 Bft) W 0.27 h 61 W/m 7.6 C 18.7 C 20.8 km/h (4 Bft)
11.06.2009 21:00 17.2 C 52 % 1019.9 hPa 0.0 l/m 10.9 km/h (2 Bft) W 0.03 h 9 W/m 7.3 C 17.2 C 17.1 km/h (3 Bft)
11.06.2009 22:00 16.1 C 56 % 1020.8 hPa 0.0 l/m 7.7 km/h (2 Bft) W 0.00 h 0 W/m 7.4 C 16.1 C 12.3 km/h (3 Bft)
11.06.2009 23:00 15.1 C 61 % 1021.3 hPa 0.0 l/m 6.9 km/h (2 Bft) W 0.00 h 0 W/m 7.6 C 15.1 C 10.9 km/h (2 Bft)
12.06.2009 00:00 14.5 C 65 % 1021.5 hPa 0.0 l/m 6.2 km/h (2 Bft) W 0.00 h 0 W/m 7.9 C 14.5 C 10.0 km/h (2 Bft)
12.06.2009 01:00 13.7 C 70 % 1021.7 hPa 0.0 l/m 3.5 km/h (1 Bft) W 0.00 h 0 W/m 8.3 C 13.7 C 6.3 km/h (2 Bft)
12.06.2009 02:00 12.6 C 75 % 1021.9 hPa 0.0 l/m 1.5 km/h (1 Bft) W-NW 0.00 h 0 W/m 8.3 C 12.6 C 3.4 km/h (1 Bft)
12.06.2009 03:00 11.4 C 80 % 1022.0 hPa 0.0 l/m 1.3 km/h (1 Bft) O 0.00 h 0 W/m 8.0 C 11.4 C 2.7 km/h (1 Bft)
12.06.2009 04:00 10.7 C 82 % 1022.3 hPa 0.0 l/m 1.2 km/h (1 Bft) O 0.00 h 0 W/m 7.9 C 10.7 C 2.2 km/h (1 Bft)
12.06.2009 05:00 9.9 C 85 % 1022.5 hPa 0.0 l/m 0.0 km/h (0 Bft) O 0.03 h 12 W/m 7.5 C 9.9 C 0.4 km/h (0 Bft)
12.06.2009 06:00 9.3 C 88 % 1022.8 hPa 0.0 l/m 0.0 km/h (0 Bft) N 0.15 h 46 W/m 7.4 C 9.3 C 0.1 km/h (0 Bft)
12.06.2009 07:00 11.0 C 90 % 1022.8 hPa 0.0 l/m 0.0 km/h (0 Bft) O 0.87 h 199 W/m 9.4 C 11.0 C 0.3 km/h (0 Bft)
12.06.2009 08:00 15.2 C 75 % 1022.5 hPa 0.0 l/m 0.1 km/h (0 Bft) O 0.88 h 346 W/m 10.8 C 15.2 C 0.7 km/h (0 Bft)
12.06.2009 09:00 16.4 C 70 % 1022.3 hPa 0.0 l/m 1.5 km/h (1 Bft) W-NW 0.67 h 360 W/m 10.8 C 16.4 C 3.2 km/h (1 Bft)
12.06.2009 10:00 17.9 C 59 % 1021.9 hPa 0.0 l/m 7.2 km/h (2 Bft) W 0.82 h 537 W/m 9.8 C 17.9 C 11.7 km/h (2 Bft)
12.06.2009 11:00 19.4 C 49 % 1021.5 hPa 0.0 l/m 10.7 km/h (2 Bft) W 1.00 h 798 W/m 8.4 C 19.4 C 17.6 km/h (3 Bft)
12.06.2009 12:00 20.3 C 46 % 1021.1 hPa 0.0 l/m 13.9 km/h (3 Bft) W 0.95 h 860 W/m 8.4 C 20.3 C 22.2 km/h (4 Bft)
12.06.2009 13:00 21.7 C 44 % 1020.8 hPa 0.0 l/m 11.3 km/h (2 Bft) W 0.97 h 980 W/m 8.8 C 21.7 C 18.6 km/h (3 Bft)
12.06.2009 14:00 21.1 C 42 % 1020.5 hPa 0.0 l/m 13.6 km/h (3 Bft) W 0.77 h 545 W/m 7.6 C 21.1 C 21.4 km/h (4 Bft)
12.06.2009 15:00 21.4 C 42 % 1020.4 hPa 0.0 l/m 11.1 km/h (2 Bft) W 0.90 h 552 W/m 7.9 C 21.4 C 17.7 km/h (3 Bft)
12.06.2009 16:00 21.6 C 43 % 1019.9 hPa 0.0 l/m 12.7 km/h (3 Bft) W 0.72 h 410 W/m 8.5 C 21.6 C 19.8 km/h (3 Bft)
12.06.2009 17:00 20.8 C 45 % 1020.0 hPa 0.0 l/m 10.9 km/h (2 Bft) W 0.00 h 234 W/m 8.4 C 20.8 C 17.6 km/h (3 Bft)
12.06.2009 18:00 21.1 C 48 % 1020.3 hPa 0.0 l/m 10.5 km/h (2 Bft) W-NW 0.52 h 337 W/m 9.5 C 21.1 C 16.3 km/h (3 Bft)
12.06.2009 19:00 20.5 C 49 % 1020.5 hPa 0.0 l/m 8.7 km/h (2 Bft) W-NW 0.20 h 119 W/m 9.4 C 20.5 C 13.4 km/h (3 Bft)
12.06.2009 20:00 19.6 C 54 % 1020.6 hPa 0.0 l/m 5.2 km/h (1 Bft) W-NW 0.00 h 40 W/m 10.0 C 19.6 C 8.1 km/h (2 Bft)
12.06.2009 21:00 18.5 C 59 % 1020.7 hPa 0.0 l/m 2.4 km/h (1 Bft) W-SW 0.03 h 10 W/m 10.2 C 18.5 C 4.7 km/h (1 Bft)
12.06.2009 22:00 17.3 C 63 % 1021.1 hPa 0.0 l/m 0.4 km/h (0 Bft) NW 0.00 h 0 W/m 10.3 C 17.3 C 1.5 km/h (1 Bft)
12.06.2009 23:00 16.4 C 70 % 1021.1 hPa 0.0 l/m 1.1 km/h (1 Bft) O-SO 0.00 h 0 W/m 10.8 C 16.4 C 2.1 km/h (1 Bft)
13.06.2009 00:00 15.4 C 75 % 1021.3 hPa 0.0 l/m 1.2 km/h (1 Bft) O-SO 0.00 h 0 W/m 11.0 C 15.4 C 2.4 km/h (1 Bft)
13.06.2009 01:00 14.5 C 78 % 1021.3 hPa 0.0 l/m 0.1 km/h (0 Bft) O-SO 0.00 h 0 W/m 10.8 C 14.5 C 0.2 km/h (0 Bft)
13.06.2009 02:00 13.4 C 82 % 1021.4 hPa 0.0 l/m 0.5 km/h (0 Bft) O-SO 0.00 h 0 W/m 10.3 C 13.4 C 1.4 km/h (1 Bft)
13.06.2009 03:00 12.2 C 86 % 1021.3 hPa 0.0 l/m 0.5 km/h (0 Bft) O-SO 0.00 h 0 W/m 9.9 C 12.2 C 1.3 km/h (1 Bft)
13.06.2009 04:00 11.5 C 89 % 1021.3 hPa 0.0 l/m 1.8 km/h (1 Bft) O-SO 0.00 h 0 W/m 9.7 C 11.5 C 3.0 km/h (1 Bft)
13.06.2009 05:00 10.9 C 90 % 1021.4 hPa 0.0 l/m 2.0 km/h (1 Bft) O 0.00 h 8 W/m 9.5 C 10.9 C 3.4 km/h (1 Bft)
13.06.2009 06:00 10.5 C 92 % 1021.5 hPa 0.0 l/m 1.0 km/h (0 Bft) O 0.15 h 41 W/m 9.2 C 10.5 C 1.6 km/h (1 Bft)
13.06.2009 07:00 12.6 C 92 % 1021.4 hPa 0.0 l/m 0.0 km/h (0 Bft) N 1.00 h 206 W/m 11.2 C 12.6 C 0.2 km/h (0 Bft)
13.06.2009 08:00 17.1 C 74 % 1021.1 hPa 0.0 l/m 0.8 km/h (0 Bft) N-NO 1.00 h 370 W/m 12.3 C 17.1 C 2.3 km/h (1 Bft)
13.06.2009 09:00 18.6 C 67 % 1021.1 hPa 0.0 l/m 1.3 km/h (1 Bft) NW 0.95 h 531 W/m 12.3 C 18.6 C 3.2 km/h (1 Bft)
13.06.2009 10:00 20.9 C 59 % 1020.7 hPa 0.0 l/m 1.8 km/h (1 Bft) NW 1.00 h 686 W/m 12.4 C 20.9 C 3.8 km/h (1 Bft)
13.06.2009 11:00 22.3 C 54 % 1020.6 hPa 0.0 l/m 1.6 km/h (1 Bft) O-SO 1.00 h 842 W/m 12.4 C 22.3 C 4.1 km/h (1 Bft)
13.06.2009 12:00 23.3 C 50 % 1020.4 hPa 0.0 l/m 3.9 km/h (1 Bft) W 1.00 h 915 W/m 12.3 C 23.3 C 7.0 km/h (2 Bft)
13.06.2009 13:00 24.3 C 43 % 1020.0 hPa 0.0 l/m 7.8 km/h (2 Bft) W 1.00 h 914 W/m 11.0 C 24.3 C 12.5 km/h (3 Bft)
13.06.2009 14:00 24.5 C 43 % 1019.9 hPa 0.0 l/m 9.8 km/h (2 Bft) W 1.00 h 870 W/m 11.2 C 24.5 C 16.3 km/h (3 Bft)
13.06.2009 15:00 25.0 C 43 % 1019.6 hPa 0.0 l/m 6.1 km/h (2 Bft) W-NW 1.00 h 797 W/m 11.4 C 25.0 C 10.1 km/h (2 Bft)
13.06.2009 16:00 25.8 C 41 % 1019.1 hPa 0.0 l/m 4.8 km/h (1 Bft) W 1.00 h 689 W/m 11.7 C 25.8 C 8.0 km/h (2 Bft)
13.06.2009 17:00 26.8 C 41 % 1018.8 hPa 0.0 l/m 5.7 km/h (1 Bft) W-NW 1.00 h 546 W/m 12.2 C 26.8 C 8.4 km/h (2 Bft)
13.06.2009 18:00 26.5 C 41 % 1018.5 hPa 0.0 l/m 6.2 km/h (2 Bft) W 1.00 h 384 W/m 12.1 C 26.5 C 9.3 km/h (2 Bft)
13.06.2009 19:00 26.4 C 43 % 1018.1 hPa 0.0 l/m 4.7 km/h (1 Bft) W 1.00 h 221 W/m 12.9 C 26.4 C 7.4 km/h (2 Bft)
13.06.2009 20:00 25.9 C 46 % 1017.9 hPa 0.0 l/m 1.8 km/h (1 Bft) W-SW 0.82 h 77 W/m 13.5 C 25.9 C 3.5 km/h (1 Bft)
13.06.2009 21:00 23.0 C 57 % 1018.2 hPa 0.0 l/m 1.8 km/h (1 Bft) SO 0.05 h 10 W/m 14.0 C 23.0 C 3.2 km/h (1 Bft)
13.06.2009 22:00 19.5 C 69 % 1018.6 hPa 0.0 l/m 1.0 km/h (0 Bft) O 0.00 h 0 W/m 13.7 C 19.5 C 2.2 km/h (1 Bft)
13.06.2009 23:00 17.0 C 77 % 1018.8 hPa 0.0 l/m 1.8 km/h (1 Bft) O-SO 0.00 h 0 W/m 12.9 C 17.0 C 2.7 km/h (1 Bft)
14.06.2009 00:00 15.5 C 80 % 1019.1 hPa 0.0 l/m 0.5 km/h (0 Bft) O-SO 0.00 h 0 W/m 12.1 C 15.5 C 1.6 km/h (1 Bft)
14.06.2009 01:00 14.2 C 82 % 1019.3 hPa 0.0 l/m 0.7 km/h (0 Bft) O-SO 0.00 h 0 W/m 11.1 C 14.2 C 1.3 km/h (1 Bft)
14.06.2009 02:00 13.5 C 86 % 1019.4 hPa 0.0 l/m 0.9 km/h (0 Bft) O-SO 0.00 h 0 W/m 11.1 C 13.5 C 1.8 km/h (1 Bft)
14.06.2009 03:00 12.7 C 89 % 1019.4 hPa 0.0 l/m 0.7 km/h (0 Bft) O-SO 0.00 h 0 W/m 10.9 C 12.7 C 1.8 km/h (1 Bft)
14.06.2009 04:00 12.2 C 90 % 1019.3 hPa 0.0 l/m 0.4 km/h (0 Bft) O-SO 0.00 h 0 W/m 10.6 C 12.2 C 1.1 km/h (1 Bft)
14.06.2009 05:00 11.8 C 92 % 1019.5 hPa 0.0 l/m 0.1 km/h (0 Bft) O-SO 0.00 h 8 W/m 10.5 C 11.8 C 0.7 km/h (0 Bft)
14.06.2009 06:00 11.6 C 93 % 1019.5 hPa 0.0 l/m 0.1 km/h (0 Bft) O-SO 0.17 h 53 W/m 10.5 C 11.6 C 0.4 km/h (0 Bft)
14.06.2009 07:00 13.1 C 95 % 1019.5 hPa 0.0 l/m 0.1 km/h (0 Bft) O-SO 0.55 h 178 W/m 12.3 C 13.1 C 0.7 km/h (0 Bft)
14.06.2009 08:00 16.2 C 88 % 1019.1 hPa 0.0 l/m 0.3 km/h (0 Bft) O-SO 0.97 h 356 W/m 14.1 C 16.2 C 1.4 km/h (1 Bft)
14.06.2009 09:00 19.1 C 72 % 1018.9 hPa 0.0 l/m 1.3 km/h (1 Bft) NW 1.00 h 528 W/m 14.0 C 19.1 C 3.2 km/h (1 Bft)
14.06.2009 10:00 21.7 C 64 % 1018.6 hPa 0.0 l/m 2.6 km/h (1 Bft) S-SO 1.00 h 660 W/m 14.6 C 21.7 C 5.4 km/h (1 Bft)
14.06.2009 11:00 24.1 C 58 % 1018.2 hPa 0.0 l/m 2.3 km/h (1 Bft) S-SO 1.00 h 751 W/m 15.3 C 24.1 C 5.0 km/h (1 Bft)
14.06.2009 12:00 25.7 C 52 % 1017.7 hPa 0.0 l/m 3.6 km/h (1 Bft) SO 1.00 h 641 W/m 15.1 C 25.7 C 6.4 km/h (2 Bft)
14.06.2009 13:00 27.6 C 48 % 1017.4 hPa 0.0 l/m 3.1 km/h (1 Bft) W-NW 1.00 h 823 W/m 15.7 C 27.6 C 6.0 km/h (2 Bft)
14.06.2009 14:00 28.4 C 46 % 1017.1 hPa 0.0 l/m 4.1 km/h (1 Bft) W 0.70 h 584 W/m 15.6 C 28.4 C 7.0 km/h (2 Bft)
14.06.2009 15:00 28.2 C 48 % 1017.3 hPa 0.0 l/m 5.0 km/h (1 Bft) W 0.57 h 526 W/m 16.1 C 28.2 C 8.0 km/h (2 Bft)
14.06.2009 16:00 28.0 C 47 % 1017.0 hPa 0.0 l/m 7.1 km/h (2 Bft) W 0.27 h 343 W/m 15.5 C 28.0 C 11.6 km/h (2 Bft)
14.06.2009 17:00 27.4 C 52 % 1017.4 hPa 0.0 l/m 10.2 km/h (2 Bft) W 0.18 h 289 W/m 16.5 C 27.4 C 16.1 km/h (3 Bft)
14.06.2009 18:00 26.6 C 51 % 1017.9 hPa 0.0 l/m 18.0 km/h (3 Bft) W 0.00 h 149 W/m 15.5 C 26.6 C 27.5 km/h (4 Bft)
14.06.2009 19:00 25.3 C 54 % 1018.1 hPa 0.0 l/m 12.7 km/h (3 Bft) W-NW 0.00 h 74 W/m 15.4 C 25.3 C 19.6 km/h (3 Bft)
14.06.2009 20:00 24.0 C 57 % 1018.3 hPa 0.0 l/m 2.0 km/h (1 Bft) O-SO 0.00 h 29 W/m 14.9 C 24.0 C 3.6 km/h (1 Bft)
14.06.2009 21:00 22.6 C 67 % 1018.8 hPa 0.2 l/m 3.6 km/h (1 Bft) O-SO 0.00 h 5 W/m 16.1 C 22.6 C 5.4 km/h (1 Bft)
14.06.2009 22:00 20.4 C 81 % 1018.7 hPa 0.0 l/m 1.1 km/h (1 Bft) O-SO 0.00 h 0 W/m 17.0 C 20.4 C 2.1 km/h (1 Bft)
14.06.2009 23:00 19.8 C 83 % 1018.3 hPa 0.0 l/m 0.9 km/h (0 Bft) SO 0.00 h 0 W/m 16.9 C 19.8 C 1.8 km/h (1 Bft)
Min-Datum _ 12.06.09 10.06.09 08.06.09 - 08.06.09 - - - 12.06.09 12.06.09 08.06.09
_ Min-Zeit 07:00 15:07 16:00 - 00:10 - - - 14:20 06:23 00:11
Minimum _ 9.1 C 35 % 1006.8 hPa - 0.0 km/h (0 Bft) - - - 6.1 C 9.2 C 0.0 km/h (0 Bft)
Max-Datum _ 14.06.09 09.06.09 12.06.09 08.06.09 11.06.09 - 08.06.09 12.06.09 14.06.09 14.06.09 11.06.09
_ Max-Zeit 13:56 08:58 07:15 18:41 09:58 - 05:43 12:25 15:26 13:55 11:42
Maximum _ 29.2 C 99 % 1022.9 hPa 2.8 l/m 33.0 km/h
W (5 Bft)
- 0.02 h 1121 W/m 18.2 C 29.2 C 55.6 km/h
W-NW (7 Bft)
Durchschnitt _ 17.9 C 69 % 1015.9 hPa #21.2 l/m 4.7 km/h (1 Bft) W #62:10 h 377 W/m 11.4 C 17.9 C 7.9 km/h (2 Bft)
© Kaiko 2009